NQU weather

Reyes Murillo Airport
Nuquí, Chocó Department, Colombia

Public forecast

Using degrees Celsius for public forecast. Weather courtesy of forecast.io.

METAR (pilot weather report)

Report is more than 6 hours old.

Closest report is José Celestino Mutis Airport, 31.2 nm (57.7 km) NNW. Retrieved 2019/02/13 12:00 UTC (2 months ago):

SKBS 131200Z /////KT 5000 MIFG OVC030 XX/XX A//// RMK MIFG/S/N

TAF (pilot weather forecast)

Forecast is more than 12 hours old.

Closest forecast is Matecaña International Airport, 106.3 nm (196.9 km) ESE. Retrieved 2019/04/22 00:51 UTC (1 day ago):

TAF TAF SKPE 222230Z 2300/2324 21004KT 8000 SCT015 SCT090 TEMPO 2300/2302 VCSH BECMG 2302/2304 VRB02KT PROB40 TEMPO 2304/2306 8000 DZ PROB40 TEMPO 2308/2310 7000 DZRA TEMPO 2309/2313 5000 BR DZ TEMPO 2319/2323 15007KT RA SCT017CB TX25/2319Z TN18/2311Z